Date,TemperatureHighF,TemperatureAvgF,TemperatureLowF,DewpointHighF,DewpointAvgF,DewpointLowF,HumidityHigh,HumidityAvg,HumidityLow,PressureMaxIn,PressureMinIn,WindSpeedMaxMPH,WindSpeedAvgMPH,GustSpeedMaxMPH,PrecipitationSumIn
2013-1-1,51.6,49.1,46.4,50.8,45.0,34.1,98,87,56,30.19,30.00,0,0,1,0.01
2013-1-2,50.7,43.8,39.3,50.2,40.5,35.2,98,88,73,30.24,29.99,7,0,10,0.00
2013-1-3,46.2,39.6,37.6,36.5,32.6,-99.9,90,79,56,30.30,30.20,13,-11,13,0.00
2013-1-4,31.2,30.2,29.5,25.6,25.2,24.9,83,81,79,30.45,30.45,0,0,11,0.00
2013-1-5,49.4,37.6,27.2,38.1,24.7,-99.9,88,66,35,30.48,30.33,0,-19,2,0.00
2013-1-6,50.1,43.0,37.2,39.5,36.3,33.5,87,77,61,30.36,30.21,2,0,7,0.00
2013-1-8,52.3,50.4,49.2,39.6,37.6,33.6,68,61,54,30.45,30.37,3,1,10,0.00
2013-1-9,59.3,52.1,49.5,50.5,42.5,39.4,73,70,68,30.44,30.40,1,0,9,0.00
2013-1-10,68.1,61.6,58.4,60.6,54.9,50.1,94,79,68,30.45,30.27,5,1,11,0.00
2013-1-11,68.3,63.3,60.5,64.0,61.8,58.4,97,95,81,30.27,30.15,5,0,11,0.00
2013-1-12,75.4,65.2,60.5,65.1,59.9,56.1,98,85,57,30.20,30.08,1,0,5,0.00
2013-1-13,61.8,61.3,60.7,58.2,56.9,56.0,89,86,82,30.10,30.07,0,0,3,0.00
2013-1-17,42.2,40.6,39.2,41.7,39.9,38.4,98,97,97,29.91,29.84,2,1,7,0.00
2013-1-19,57.3,48.8,37.8,34.1,29.2,22.4,82,50,27,30.52,30.29,5,0,5,0.00
2013-1-20,62.7,44.4,31.2,38.2,34.3,29.7,96,72,37,30.31,30.17,5,0,8,0.00
2013-1-21,56.3,43.2,32.4,37.9,31.0,-99.9,97,69,38,30.22,30.15,4,-9,16,0.00
2013-1-25,41.6,39.6,35.0,29.9,23.1,16.8,73,52,45,30.38,30.22,2,0,8,0.00
2013-1-26,57.8,43.6,37.0,36.7,30.2,21.7,92,64,27,30.36,30.22,1,0,10,0.00
2013-1-27,53.2,44.6,38.6,33.2,31.3,27.8,74,60,45,30.54,30.34,5,1,13,0.00
2013-1-28,49.8,45.0,42.5,43.3,35.1,29.8,85,68,58,30.49,30.34,4,0,6,0.00
2013-1-29,73.0,57.7,44.2,62.1,51.8,40.6,94,82,57,30.34,30.00,2,0,10,0.02
2013-1-30,69.4,66.0,64.2,64.2,62.0,57.6,94,87,78,30.00,29.61,10,2,14,0.04